createdAt,value
2023-05-24T00:00:42.308Z,101.17
2023-05-24T00:01:42.158Z,103.94
2023-05-24T00:02:42.304Z,104.12
2023-05-24T00:03:42.417Z,105.51
2023-05-24T00:04:42.487Z,109.27
2023-05-24T00:05:42.358Z,108.92
2023-05-24T00:06:42.468Z,106.89
2023-05-24T00:07:42.510Z,102.45
2023-05-24T00:08:42.536Z,101.58
2023-05-24T00:09:42.708Z,101.76
2023-05-24T00:10:42.744Z,105.85
2023-05-24T00:11:42.629Z,108.23
2023-05-24T00:12:42.664Z,105.55
2023-05-24T00:13:42.723Z,106.07
2023-05-24T00:14:42.776Z,105.01
2023-05-24T00:15:42.800Z,105.26
2023-05-24T00:16:42.926Z,108.13
2023-05-24T00:17:43.130Z,105.44
2023-05-24T00:18:42.934Z,105.58
2023-05-24T00:19:42.990Z,98.73
2023-05-24T00:20:43.197Z,98.99
2023-05-24T00:21:43.033Z,104.47
2023-05-24T00:22:43.127Z,111.74
2023-05-24T00:23:43.214Z,109.29
2023-05-24T00:24:43.197Z,113.97
2023-05-24T00:25:43.214Z,102.10
2023-05-24T00:26:43.223Z,92.31
2023-05-24T00:27:43.197Z,91.18
2023-05-24T00:28:43.192Z,84.69
2023-05-24T00:29:43.292Z,83.99
2023-05-24T00:30:43.560Z,84.72
2023-05-24T00:31:43.365Z,86.95
2023-05-24T00:32:43.310Z,86.14
2023-05-24T00:33:44.147Z,78.90
2023-05-24T00:34:43.270Z,82.12
2023-05-24T00:35:43.245Z,78.78
2023-05-24T00:36:43.284Z,84.19
2023-05-24T00:37:43.272Z,81.91
2023-05-24T00:38:43.269Z,83.82
2023-05-24T00:39:43.278Z,81.90
2023-05-24T00:40:43.484Z,78.74
2023-05-24T00:41:43.454Z,78.24
2023-05-24T00:42:43.473Z,75.38
2023-05-24T00:43:43.446Z,71.68
2023-05-24T00:44:43.442Z,72.60
2023-05-24T00:45:43.514Z,79.40
2023-05-24T00:46:43.457Z,77.08
2023-05-24T00:47:43.524Z,84.36
2023-05-24T00:48:43.562Z,79.96
2023-05-24T00:49:43.659Z,69.02
2023-05-24T00:50:44.010Z,62.78
2023-05-24T00:51:43.850Z,60.97
2023-05-24T00:52:43.924Z,63.02
2023-05-24T00:53:43.924Z,63.10
2023-05-24T00:54:43.939Z,62.39
2023-05-24T00:55:43.946Z,64.52
2023-05-24T00:56:43.943Z,63.78
2023-05-24T00:57:43.956Z,62.52
2023-05-24T00:58:44.622Z,62.47
2023-05-24T00:59:43.927Z,67.55
2023-05-24T01:00:43.947Z,63.24
2023-05-24T01:01:43.929Z,64.47
2023-05-24T01:02:44.021Z,65.67
2023-05-24T01:03:44.074Z,67.04
2023-05-24T01:04:43.950Z,67.06
2023-05-24T01:05:44.014Z,70.24
2023-05-24T01:06:44.096Z,69.35
2023-05-24T01:07:44.176Z,69.22
2023-05-24T01:08:44.272Z,67.85
2023-05-24T01:09:44.366Z,72.19
2023-05-24T01:10:44.670Z,74.81
2023-05-24T01:11:44.426Z,71.65
2023-05-24T01:12:44.429Z,67.28
2023-05-24T01:13:44.402Z,65.16
2023-05-24T01:14:44.431Z,66.89
2023-05-24T01:15:44.480Z,66.98
2023-05-24T01:16:44.413Z,70.92
2023-05-24T01:17:44.557Z,70.32
2023-05-24T01:18:44.626Z,69.61
2023-05-24T01:19:44.716Z,70.94
2023-05-24T01:20:44.956Z,70.39
2023-05-24T01:21:44.787Z,67.04
2023-05-24T01:22:44.772Z,74.97
2023-05-24T01:23:44.790Z,73.84
2023-05-24T01:24:44.801Z,70.03
2023-05-24T01:25:44.811Z,69.69
2023-05-24T01:26:44.789Z,66.84
2023-05-24T01:27:44.872Z,62.11
2023-05-24T01:28:44.879Z,62.66
2023-05-24T01:29:44.907Z,74.53
2023-05-24T01:30:44.956Z,71.55
2023-05-24T01:31:45.084Z,72.08
2023-05-24T01:32:45.003Z,71.58
2023-05-24T01:33:44.976Z,68.22
2023-05-24T01:34:45.050Z,69.25
2023-05-24T01:35:45.045Z,70.75
2023-05-24T01:36:45.081Z,69.35
2023-05-24T01:37:45.172Z,76.77
2023-05-24T01:38:45.274Z,77.90
2023-05-24T01:39:45.365Z,71.66
2023-05-24T01:40:45.616Z,73.24
2023-05-24T01:41:45.539Z,73.70
2023-05-24T01:42:45.601Z,68.65
2023-05-24T01:43:45.696Z,70.64
2023-05-24T01:44:45.701Z,75.81
2023-05-24T01:45:45.714Z,73.70
2023-05-24T01:46:45.770Z,71.19
2023-05-24T01:47:45.822Z,72.43
2023-05-24T01:48:45.773Z,72.61
2023-05-24T01:49:45.810Z,76.40
2023-05-24T01:50:45.843Z,69.58
2023-05-24T01:51:45.886Z,72.11
2023-05-24T01:52:45.934Z,76.03
2023-05-24T01:53:45.923Z,72.16
2023-05-24T01:54:45.939Z,71.51
2023-05-24T01:55:45.923Z,73.34
2023-05-24T01:56:45.911Z,73.29
2023-05-24T01:57:45.945Z,81.74
2023-05-24T01:58:45.920Z,69.04
2023-05-24T01:59:46.024Z,66.86
2023-05-24T02:00:46.312Z,65.41
2023-05-24T02:01:46.193Z,65.94
2023-05-24T02:02:46.398Z,71.29
2023-05-24T02:03:46.274Z,73.29
2023-05-24T02:04:46.271Z,73.82
2023-05-24T02:05:46.255Z,80.34
2023-05-24T02:06:46.306Z,86.05
2023-05-24T02:07:46.273Z,79.83
2023-05-24T02:08:46.279Z,73.74
2023-05-24T02:09:46.379Z,72.89
2023-05-24T02:10:46.431Z,75.75
2023-05-24T02:11:46.440Z,81.70
2023-05-24T02:12:46.464Z,74.48
2023-05-24T02:13:46.461Z,72.77
2023-05-24T02:14:46.459Z,69.31
2023-05-24T02:15:46.478Z,70.17
2023-05-24T02:16:46.558Z,74.77
2023-05-24T02:17:46.519Z,72.48
2023-05-24T02:18:46.612Z,68.80
2023-05-24T02:19:46.706Z,72.02
2023-05-24T02:20:46.680Z,75.53
2023-05-24T02:21:46.689Z,73.56
2023-05-24T02:22:46.702Z,72.92
2023-05-24T02:23:46.700Z,73.77
2023-05-24T02:24:46.694Z,71.25
2023-05-24T02:25:46.716Z,68.56
2023-05-24T02:26:46.708Z,76.70
2023-05-24T02:27:46.671Z,72.60
2023-05-24T02:28:46.675Z,77.83
2023-05-24T02:29:46.674Z,85.73
2023-05-24T02:30:46.681Z,85.03
2023-05-24T02:31:46.706Z,81.57
2023-05-24T02:32:46.740Z,74.51
2023-05-24T02:33:46.688Z,72.18
2023-05-24T02:34:46.700Z,67.53
2023-05-24T02:35:46.709Z,67.02
2023-05-24T02:36:46.735Z,65.18
2023-05-24T02:37:46.749Z,65.94
2023-05-24T02:38:46.743Z,65.64
2023-05-24T02:39:46.731Z,73.70
2023-05-24T02:40:46.702Z,66.65
2023-05-24T02:41:46.725Z,64.01
2023-05-24T02:42:47.685Z,64.85
2023-05-24T02:43:46.714Z,63.55
2023-05-24T02:44:46.741Z,64.14
2023-05-24T02:45:46.736Z,59.73
2023-05-24T02:46:46.800Z,63.04
2023-05-24T02:47:46.774Z,63.30
2023-05-24T02:48:46.766Z,61.50
2023-05-24T02:49:46.847Z,65.10
2023-05-24T02:50:46.863Z,64.42
2023-05-24T02:51:46.851Z,64.53
2023-05-24T02:52:46.846Z,63.67
2023-05-24T02:53:46.853Z,63.30
2023-05-24T02:54:46.833Z,62.56
2023-05-24T02:55:46.893Z,63.09
2023-05-24T02:56:46.893Z,62.10
2023-05-24T02:57:46.862Z,64.07
2023-05-24T02:58:46.850Z,64.24
2023-05-24T02:59:46.844Z,70.24
2023-05-24T03:00:46.838Z,72.12
2023-05-24T03:01:46.944Z,71.38
2023-05-24T03:02:47.069Z,68.20
2023-05-24T03:03:47.072Z,62.29
2023-05-24T03:04:47.009Z,61.08
2023-05-24T03:05:47.002Z,60.42
2023-05-24T03:06:47.002Z,59.82
2023-05-24T03:07:47.032Z,58.20
2023-05-24T03:08:47.103Z,59.38
2023-05-24T03:09:47.072Z,56.99
2023-05-24T03:10:47.079Z,60.00
2023-05-24T03:11:47.131Z,61.39
2023-05-24T03:12:47.084Z,63.98
2023-05-24T03:13:47.091Z,61.54
2023-05-24T03:14:47.144Z,61.17
2023-05-24T03:15:47.233Z,62.21
2023-05-24T03:16:47.292Z,62.38
2023-05-24T03:17:47.439Z,63.68
2023-05-24T03:18:47.390Z,61.84
2023-05-24T03:19:47.384Z,63.00
2023-05-24T03:20:47.399Z,63.86
2023-05-24T03:21:47.397Z,61.50
2023-05-24T03:22:47.401Z,60.97
2023-05-24T03:23:47.456Z,60.13
2023-05-24T03:24:47.453Z,59.92
2023-05-24T03:25:47.452Z,61.56
2023-05-24T03:26:47.471Z,61.26
2023-05-24T03:27:47.482Z,63.34
2023-05-24T03:28:47.461Z,66.76
2023-05-24T03:29:47.526Z,68.04
2023-05-24T03:30:47.593Z,69.19
2023-05-24T03:31:47.669Z,67.40
2023-05-24T03:32:47.670Z,68.19
2023-05-24T03:33:47.647Z,66.98
2023-05-24T03:34:47.628Z,66.00
2023-05-24T03:35:47.629Z,69.25
2023-05-24T03:36:47.712Z,68.73
2023-05-24T03:37:47.791Z,67.88
2023-05-24T03:38:47.792Z,65.47
2023-05-24T03:39:47.807Z,68.52
2023-05-24T03:40:47.801Z,68.14
2023-05-24T03:41:47.811Z,68.33
2023-05-24T03:42:47.773Z,67.52
2023-05-24T03:43:47.871Z,67.57
2023-05-24T03:44:47.937Z,67.61
2023-05-24T03:45:47.964Z,65.98
2023-05-24T03:46:47.972Z,66.51
2023-05-24T03:47:48.002Z,71.21
2023-05-24T03:48:48.001Z,66.61
2023-05-24T03:49:47.974Z,62.69
2023-05-24T03:50:48.038Z,64.80
2023-05-24T03:51:48.138Z,62.38
2023-05-24T03:52:48.234Z,65.85
2023-05-24T03:53:48.255Z,61.73
2023-05-24T03:54:48.263Z,62.87
2023-05-24T03:55:48.234Z,59.78
2023-05-24T03:56:48.246Z,54.50
2023-05-24T03:57:48.247Z,56.47
2023-05-24T03:58:48.298Z,60.25
2023-05-24T03:59:48.402Z,59.52
2023-05-24T04:00:48.520Z,53.06
2023-05-24T04:01:48.524Z,51.32
2023-05-24T04:02:48.710Z,50.47
2023-05-24T04:03:48.604Z,48.76
2023-05-24T04:04:48.528Z,49.24
2023-05-24T04:05:48.539Z,50.60
2023-05-24T04:06:48.566Z,51.95
2023-05-24T04:07:48.694Z,51.47
2023-05-24T04:08:48.574Z,50.62
2023-05-24T04:09:48.596Z,49.12
2023-05-24T04:10:48.655Z,51.26
2023-05-24T04:11:48.620Z,50.64
2023-05-24T04:12:48.631Z,52.87
2023-05-24T04:13:48.650Z,56.16
2023-05-24T04:14:48.708Z,56.00
2023-05-24T04:15:48.690Z,55.54
2023-05-24T04:16:48.889Z,60.84
2023-05-24T04:17:48.813Z,53.43
2023-05-24T04:18:48.851Z,55.63
2023-05-24T04:19:48.795Z,48.73
2023-05-24T04:20:48.789Z,45.90
2023-05-24T04:21:48.786Z,49.32
2023-05-24T04:22:48.861Z,51.67
2023-05-24T04:23:48.856Z,52.47
2023-05-24T04:24:48.870Z,51.65
2023-05-24T04:25:48.891Z,49.51
2023-05-24T04:26:48.938Z,54.49
2023-05-24T04:27:49.001Z,53.63
2023-05-24T04:28:49.125Z,49.57
2023-05-24T04:29:49.036Z,46.86
2023-05-24T04:30:49.108Z,40.50
2023-05-24T04:31:49.257Z,41.05
2023-05-24T04:32:49.119Z,40.53
2023-05-24T04:33:49.228Z,51.85
2023-05-24T04:34:49.173Z,46.67
2023-05-24T04:35:49.238Z,42.09
2023-05-24T04:36:49.215Z,39.37
2023-05-24T04:37:49.241Z,41.10
2023-05-24T04:38:49.224Z,43.50
2023-05-24T04:39:49.254Z,40.78
2023-05-24T04:40:49.298Z,40.20
2023-05-24T04:41:49.307Z,43.65
2023-05-24T04:42:49.333Z,43.30
2023-05-24T04:43:49.346Z,37.96
2023-05-24T04:44:49.364Z,37.82
2023-05-24T04:45:49.400Z,35.31
2023-05-24T04:46:49.455Z,43.18
2023-05-24T04:47:49.491Z,53.52
2023-05-24T04:48:49.505Z,50.22
2023-05-24T04:49:49.504Z,47.33
2023-05-24T04:50:49.541Z,44.79
2023-05-24T04:51:49.540Z,37.33
2023-05-24T04:52:49.615Z,37.52
2023-05-24T04:53:49.612Z,40.03
2023-05-24T04:54:49.617Z,37.60
2023-05-24T04:55:49.644Z,32.29
2023-05-24T04:56:49.704Z,37.60
2023-05-24T04:57:49.710Z,40.64
2023-05-24T04:58:49.730Z,37.65
2023-05-24T04:59:49.733Z,44.70
2023-05-24T05:00:56.835Z,35.60
2023-05-24T05:01:49.837Z,35.81
2023-05-24T05:02:49.819Z,35.86
2023-05-24T05:03:49.798Z,35.64
2023-05-24T05:04:49.745Z,35.99
2023-05-24T05:05:49.740Z,38.49
2023-05-24T05:06:49.719Z,41.60
2023-05-24T05:07:49.750Z,38.98
2023-05-24T05:08:49.741Z,41.47
2023-05-24T05:09:49.705Z,40.93
2023-05-24T05:10:49.718Z,40.62
2023-05-24T05:11:49.717Z,43.34
2023-05-24T05:12:49.682Z,45.62
2023-05-24T05:13:49.717Z,48.81
2023-05-24T05:14:49.687Z,52.03
2023-05-24T05:15:49.670Z,50.77
2023-05-24T05:16:49.883Z,53.31
2023-05-24T05:17:49.691Z,54.00
2023-05-24T05:18:49.659Z,55.58
2023-05-24T05:19:49.695Z,56.20
2023-05-24T05:20:49.695Z,60.28
2023-05-24T05:21:49.649Z,63.69
2023-05-24T05:22:49.646Z,67.96
2023-05-24T05:23:49.623Z,63.42
2023-05-24T05:24:49.620Z,60.09
2023-05-24T05:25:49.621Z,61.69
2023-05-24T05:26:49.582Z,58.77
2023-05-24T05:27:49.779Z,62.45
2023-05-24T05:28:49.581Z,63.42
2023-05-24T05:29:49.570Z,64.87
2023-05-24T05:30:49.555Z,69.07
2023-05-24T05:31:49.609Z,69.51
2023-05-24T05:32:49.754Z,67.36
2023-05-24T05:33:49.554Z,72.08
2023-05-24T05:34:49.548Z,76.27
2023-05-24T05:35:49.517Z,84.79
2023-05-24T05:36:49.529Z,81.22
2023-05-24T05:37:49.547Z,77.89
2023-05-24T05:38:50.533Z,78.02
2023-05-24T05:39:49.501Z,78.23
2023-05-24T05:40:49.496Z,78.71
2023-05-24T05:41:49.512Z,77.04
2023-05-24T05:42:49.471Z,76.95
2023-05-24T05:43:51.270Z,77.40
2023-05-24T05:44:49.480Z,79.85
2023-05-24T05:45:56.519Z,80.90
2023-05-24T05:46:49.498Z,81.35
2023-05-24T05:47:49.863Z,83.44
2023-05-24T05:48:49.462Z,86.39
2023-05-24T05:49:49.503Z,85.88
2023-05-24T05:50:49.502Z,84.27
2023-05-24T05:51:49.445Z,80.21
2023-05-24T05:52:49.450Z,79.90
2023-05-24T05:53:49.470Z,81.86
2023-05-24T05:54:49.394Z,82.99
2023-05-24T05:55:49.437Z,91.74
2023-05-24T05:56:49.493Z,87.60
2023-05-24T05:57:49.384Z,78.63
2023-05-24T05:58:49.439Z,82.24
2023-05-24T05:59:49.396Z,84.87
2023-05-24T06:00:49.399Z,67.87
2023-05-24T06:01:49.464Z,84.53
2023-05-24T06:02:49.532Z,76.74
2023-05-24T06:03:49.584Z,77.48
2023-05-24T06:04:49.484Z,65.96
2023-05-24T06:05:49.410Z,67.76
2023-05-24T06:06:49.448Z,71.77
2023-05-24T06:07:49.408Z,73.77
2023-05-24T06:08:49.353Z,72.53
2023-05-24T06:09:49.413Z,70.04
2023-05-24T06:10:51.217Z,73.43
2023-05-24T06:11:49.402Z,73.58
2023-05-24T06:12:50.301Z,73.49
2023-05-24T06:13:49.381Z,69.64
2023-05-24T06:14:49.294Z,68.30
2023-05-24T06:15:49.465Z,68.50
2023-05-24T06:16:49.266Z,66.18
2023-05-24T06:17:49.272Z,62.69
2023-05-24T06:19:01.220Z,62.30
2023-05-24T06:19:50.252Z,62.67
2023-05-24T06:20:49.306Z,63.58
2023-05-24T06:21:49.232Z,64.43
2023-05-24T06:22:49.244Z,65.28
2023-05-24T06:23:49.255Z,65.97
2023-05-24T06:24:49.204Z,66.05
2023-05-24T06:25:49.186Z,71.74
2023-05-24T06:26:49.238Z,68.85
2023-05-24T06:27:49.221Z,66.75
2023-05-24T06:28:49.212Z,67.59
2023-05-24T06:29:49.220Z,67.14
2023-05-24T06:30:49.136Z,66.59
2023-05-24T06:31:49.233Z,70.90
2023-05-24T06:32:49.271Z,82.19
2023-05-24T06:34:02.732Z,81.89
2023-05-24T06:34:50.185Z,82.06
2023-05-24T06:35:49.133Z,82.10
2023-05-24T06:36:49.198Z,82.03
2023-05-24T06:37:49.135Z,83.03
2023-05-24T06:38:49.506Z,77.25
2023-05-24T06:39:49.109Z,75.55
2023-05-24T06:40:49.119Z,71.46
2023-05-24T06:41:49.123Z,71.02
2023-05-24T06:42:49.136Z,69.03
2023-05-24T06:43:49.114Z,64.45
2023-05-24T06:44:49.072Z,69.10
2023-05-24T06:45:49.122Z,71.64
2023-05-24T06:46:49.062Z,71.18
2023-05-24T06:47:49.135Z,73.15
2023-05-24T06:48:49.145Z,65.88
2023-05-24T06:49:49.054Z,69.56
2023-05-24T06:50:49.042Z,77.35
2023-05-24T06:51:49.006Z,74.23
2023-05-24T06:52:49.031Z,69.32
2023-05-24T06:53:49.035Z,69.02
2023-05-24T06:54:49.073Z,62.41
2023-05-24T06:55:49.025Z,66.07
2023-05-24T06:56:49.056Z,66.44
2023-05-24T06:57:49.033Z,61.85
2023-05-24T06:58:49.137Z,61.79
2023-05-24T06:59:49.108Z,65.09
2023-05-24T07:00:49.160Z,63.67
2023-05-24T07:01:49.168Z,62.38
2023-05-24T07:02:49.225Z,63.52
2023-05-24T07:03:49.167Z,63.69
2023-05-24T07:04:49.250Z,55.45
2023-05-24T07:05:49.224Z,54.52
2023-05-24T07:06:49.237Z,61.62
2023-05-24T07:07:49.258Z,60.62
2023-05-24T07:08:49.249Z,63.58
2023-05-24T07:09:49.277Z,68.77
2023-05-24T07:10:49.263Z,60.53
2023-05-24T07:11:49.388Z,58.86
2023-05-24T07:12:49.352Z,52.00
2023-05-24T07:13:49.520Z,55.46
2023-05-24T07:14:49.501Z,69.62
2023-05-24T07:15:49.483Z,64.10
2023-05-24T07:16:49.540Z,61.43
2023-05-24T07:17:49.507Z,54.62
2023-05-24T07:18:49.523Z,51.49
2023-05-24T07:19:49.701Z,51.45
2023-05-24T07:20:49.801Z,59.22
2023-05-24T07:21:50.772Z,57.37
2023-05-24T07:22:49.849Z,54.72
2023-05-24T07:23:49.813Z,49.12
2023-05-24T07:24:49.822Z,54.13
2023-05-24T07:25:49.823Z,55.65
2023-05-24T07:26:49.879Z,54.18
2023-05-24T07:27:49.877Z,55.35
2023-05-24T07:28:50.015Z,60.65
2023-05-24T07:29:50.118Z,68.26
2023-05-24T07:30:50.256Z,75.90
2023-05-24T07:31:50.179Z,64.72
2023-05-24T07:32:50.229Z,69.52
2023-05-24T07:33:50.377Z,64.65
2023-05-24T07:34:50.164Z,62.57
2023-05-24T07:35:50.144Z,64.66
2023-05-24T07:36:50.175Z,54.49
2023-05-24T07:37:50.289Z,57.14
2023-05-24T07:38:50.252Z,54.71
2023-05-24T07:39:50.316Z,50.76
2023-05-24T07:40:50.316Z,55.06
2023-05-24T07:41:50.375Z,58.01
2023-05-24T07:42:50.411Z,59.11
2023-05-24T07:43:50.429Z,54.43
2023-05-24T07:44:50.497Z,45.26
2023-05-24T07:45:50.503Z,31.97
2023-05-24T07:46:50.550Z,34.31
2023-05-24T07:47:50.606Z,50.34
2023-05-24T07:48:50.625Z,44.87
2023-05-24T07:49:50.689Z,36.59
2023-05-24T07:50:50.709Z,29.94
2023-05-24T07:51:50.766Z,37.40
2023-05-24T07:52:50.778Z,39.90
2023-05-24T07:53:50.815Z,33.67
2023-05-24T07:54:50.935Z,29.13
2023-05-24T07:55:50.885Z,25.00
2023-05-24T07:56:50.952Z,33.06
2023-05-24T07:57:50.982Z,27.24
2023-05-24T07:58:51.002Z,31.60
2023-05-24T07:59:51.014Z,41.47
2023-05-24T08:00:51.085Z,32.36
2023-05-24T08:01:51.091Z,30.10
2023-05-24T08:02:51.154Z,28.45
2023-05-24T08:03:51.225Z,44.69
2023-05-24T08:04:51.200Z,52.08
2023-05-24T08:05:51.184Z,55.01
2023-05-24T08:06:51.277Z,50.54
2023-05-24T08:07:51.270Z,43.33
2023-05-24T08:08:51.293Z,48.88
2023-05-24T08:09:51.351Z,40.94
2023-05-24T08:10:51.372Z,37.11
2023-05-24T08:11:51.403Z,32.17
2023-05-24T08:12:51.408Z,35.77
2023-05-24T08:13:51.457Z,38.63
2023-05-24T08:14:51.499Z,36.76
2023-05-24T08:15:51.531Z,34.92
2023-05-24T08:16:51.566Z,38.77
2023-05-24T08:17:51.601Z,41.86
2023-05-24T08:18:54.787Z,40.57
2023-05-24T08:19:51.675Z,47.11
2023-05-24T08:20:51.638Z,46.47
2023-05-24T08:21:51.672Z,50.94
2023-05-24T08:22:51.641Z,49.24
2023-05-24T08:23:51.591Z,48.22
2023-05-24T08:24:51.642Z,47.16
2023-05-24T08:25:51.608Z,48.45
2023-05-24T08:26:51.612Z,47.33
2023-05-24T08:27:51.636Z,48.58
2023-05-24T08:28:51.547Z,50.45
2023-05-24T08:29:53.006Z,52.62
2023-05-24T08:30:51.746Z,52.78
2023-05-24T08:31:51.690Z,53.95
2023-05-24T08:32:51.695Z,56.00
2023-05-24T08:33:51.712Z,58.78
2023-05-24T08:34:55.818Z,72.22
2023-05-24T08:35:52.762Z,53.43
2023-05-24T08:36:51.710Z,55.71
2023-05-24T08:37:51.756Z,57.77
2023-05-24T08:38:51.809Z,66.36
2023-05-24T08:39:51.821Z,70.22
2023-05-24T08:40:51.659Z,67.74
2023-05-24T08:42:04.880Z,76.62
2023-05-24T08:42:52.693Z,76.69
2023-05-24T08:43:51.989Z,75.33
2023-05-24T08:44:51.598Z,71.00
2023-05-24T08:45:51.655Z,68.92
2023-05-24T08:46:51.760Z,82.19
2023-05-24T08:47:51.702Z,79.58
2023-05-24T08:48:52.573Z,78.90
2023-05-24T08:49:52.441Z,77.68
2023-05-24T08:50:51.599Z,73.51
2023-05-24T08:51:51.577Z,71.91
2023-05-24T08:52:51.549Z,69.67
2023-05-24T08:53:51.937Z,65.63
2023-05-24T08:54:55.930Z,59.89
2023-05-24T08:55:51.530Z,60.06
2023-05-24T08:56:51.568Z,60.46
2023-05-24T08:57:51.527Z,60.74
2023-05-24T08:58:51.547Z,62.03
2023-05-24T08:59:51.547Z,68.43
2023-05-24T09:00:51.590Z,71.54
2023-05-24T09:01:51.554Z,67.35
2023-05-24T09:02:51.530Z,68.69
2023-05-24T09:03:51.550Z,69.34
2023-05-24T09:04:51.461Z,71.27
2023-05-24T09:05:51.472Z,89.86
2023-05-24T09:06:51.476Z,86.40
2023-05-24T09:07:51.543Z,89.62
2023-05-24T09:08:51.420Z,68.80
2023-05-24T09:09:51.444Z,57.70
2023-05-24T09:10:55.300Z,53.91
2023-05-24T09:11:51.551Z,54.15
2023-05-24T09:12:51.420Z,54.95
2023-05-24T09:13:51.428Z,56.68
2023-05-24T09:14:51.425Z,58.20
2023-05-24T09:15:51.439Z,64.85
2023-05-24T09:16:51.460Z,62.07
2023-05-24T09:17:51.441Z,68.78
2023-05-24T09:18:51.377Z,84.89
2023-05-24T09:19:51.355Z,78.91
2023-05-24T09:20:51.471Z,77.02
2023-05-24T09:21:51.364Z,82.37
2023-05-24T09:22:51.320Z,93.10
2023-05-24T09:23:51.445Z,94.70
2023-05-24T09:24:51.328Z,77.81
2023-05-24T09:25:51.429Z,60.12
2023-05-24T09:26:51.408Z,60.23
2023-05-24T09:27:51.309Z,63.80
2023-05-24T09:28:51.413Z,59.68
2023-05-24T09:29:51.337Z,62.09
2023-05-24T09:30:51.325Z,57.04
2023-05-24T09:31:51.343Z,60.66
2023-05-24T09:32:51.354Z,65.52
2023-05-24T09:33:51.332Z,60.59
2023-05-24T09:34:51.253Z,57.81
2023-05-24T09:35:51.316Z,62.74
2023-05-24T09:36:51.220Z,74.72
2023-05-24T09:37:51.235Z,74.90
2023-05-24T09:38:51.309Z,77.03
2023-05-24T09:39:51.432Z,73.67
2023-05-24T09:40:51.222Z,77.93
2023-05-24T09:41:51.204Z,84.72
2023-05-24T09:42:51.211Z,91.60
2023-05-24T09:43:51.221Z,95.01
2023-05-24T09:44:51.934Z,98.31
2023-05-24T09:45:51.372Z,92.17
2023-05-24T09:46:51.266Z,79.54
2023-05-24T09:47:51.226Z,81.32
2023-05-24T09:48:51.202Z,69.79
2023-05-24T09:49:51.465Z,62.85
2023-05-24T09:50:51.192Z,45.04
2023-05-24T09:51:51.316Z,41.47
2023-05-24T09:52:51.164Z,42.10
2023-05-24T09:53:51.131Z,27.13
2023-05-24T09:54:51.542Z,23.10
2023-05-24T09:55:51.149Z,27.47
2023-05-24T09:56:51.085Z,24.59
2023-05-24T09:57:51.108Z,28.57
2023-05-24T09:58:51.218Z,49.31
2023-05-24T09:59:51.534Z,49.46
2023-05-24T10:00:51.231Z,52.86
2023-05-24T10:01:51.241Z,48.60
2023-05-24T10:02:52.973Z,50.16
2023-05-24T10:03:51.154Z,51.92
2023-05-24T10:04:51.135Z,55.31
2023-05-24T10:05:51.045Z,66.68
2023-05-24T10:06:51.071Z,74.45
2023-05-24T10:07:51.007Z,82.38
2023-05-24T10:08:51.043Z,77.99
2023-05-24T10:09:51.498Z,70.66
2023-05-24T10:10:50.982Z,65.36
2023-05-24T10:11:50.999Z,61.32
2023-05-24T10:12:51.007Z,61.65
2023-05-24T10:13:51.018Z,63.43
2023-05-24T10:14:51.023Z,58.42
2023-05-24T10:15:50.970Z,52.88
2023-05-24T10:16:50.999Z,48.72
2023-05-24T10:17:51.054Z,50.49
2023-05-24T10:18:51.068Z,53.62
2023-05-24T10:19:50.971Z,63.13
2023-05-24T10:20:51.437Z,52.80
2023-05-24T10:21:51.043Z,55.00
2023-05-24T10:22:50.909Z,61.77
2023-05-24T10:23:50.899Z,57.51
2023-05-24T10:24:50.910Z,54.60
2023-05-24T10:25:51.027Z,47.70
2023-05-24T10:26:50.903Z,55.42
2023-05-24T10:27:50.902Z,61.70
2023-05-24T10:28:50.920Z,78.25
2023-05-24T10:29:51.019Z,87.60
2023-05-24T10:30:50.893Z,118.16
2023-05-24T10:31:50.855Z,109.04
2023-05-24T10:32:50.937Z,104.05
2023-05-24T10:33:50.852Z,112.14
2023-05-24T10:34:50.851Z,118.96
2023-05-24T10:35:50.955Z,117.39
2023-05-24T10:36:50.863Z,107.54
2023-05-24T10:37:50.889Z,97.61
2023-05-24T10:38:50.860Z,83.88
2023-05-24T10:39:50.825Z,85.20
2023-05-24T10:40:51.233Z,91.62
2023-05-24T10:41:50.792Z,90.86
2023-05-24T10:42:50.803Z,92.81
2023-05-24T10:44:04.895Z,87.54
2023-05-24T10:44:51.784Z,87.97
2023-05-24T10:45:50.837Z,89.22
2023-05-24T10:46:50.767Z,96.95
2023-05-24T10:47:50.812Z,107.80
2023-05-24T10:48:50.747Z,115.57
2023-05-24T10:49:50.776Z,116.60
2023-05-24T10:50:50.755Z,106.68
2023-05-24T10:51:51.480Z,120.60
2023-05-24T10:52:50.718Z,125.88
2023-05-24T10:53:50.714Z,126.50
2023-05-24T10:55:03.383Z,116.39
2023-05-24T10:55:51.871Z,116.46
2023-05-24T10:56:50.723Z,117.42
2023-05-24T10:57:50.704Z,120.87
2023-05-24T10:58:50.710Z,124.89
2023-05-24T10:59:50.734Z,113.11
2023-05-24T11:00:50.791Z,117.77
2023-05-24T11:01:50.711Z,105.49
2023-05-24T11:02:50.739Z,102.28
2023-05-24T11:03:50.651Z,101.51
2023-05-24T11:04:50.659Z,92.01
2023-05-24T11:05:50.762Z,92.23
2023-05-24T11:06:50.657Z,92.57
2023-05-24T11:07:50.674Z,89.92
2023-05-24T11:08:50.601Z,87.61
2023-05-24T11:09:50.578Z,81.41
2023-05-24T11:10:50.952Z,85.58
2023-05-24T11:11:50.575Z,100.22
2023-05-24T11:12:50.577Z,99.64
2023-05-24T11:13:50.755Z,103.21
2023-05-24T11:14:50.630Z,103.64
2023-05-24T11:15:50.750Z,105.16
2023-05-24T11:16:50.806Z,98.63
2023-05-24T11:17:50.816Z,84.05
2023-05-24T11:18:50.794Z,90.19
2023-05-24T11:19:50.911Z,101.80
2023-05-24T11:20:50.968Z,106.81
2023-05-24T11:21:50.963Z,102.06
2023-05-24T11:22:50.970Z,97.60
2023-05-24T11:23:51.052Z,113.47
2023-05-24T11:24:51.979Z,135.03
2023-05-24T11:25:52.073Z,151.68
2023-05-24T11:26:51.092Z,166.49
2023-05-24T11:27:51.146Z,170.25
2023-05-24T11:28:51.127Z,168.04
2023-05-24T11:29:51.158Z,169.99
2023-05-24T11:30:51.494Z,172.51
2023-05-24T11:31:51.225Z,175.32
2023-05-24T11:32:51.259Z,179.14
2023-05-24T11:33:51.244Z,181.34
2023-05-24T11:34:51.310Z,180.24
2023-05-24T11:35:51.514Z,178.99
2023-05-24T11:36:51.278Z,174.08
2023-05-24T11:37:51.421Z,176.01
2023-05-24T11:38:51.388Z,175.99
2023-05-24T11:39:51.459Z,177.21
2023-05-24T11:40:51.402Z,174.05
2023-05-24T11:41:51.421Z,174.92
2023-05-24T11:42:51.403Z,177.31
2023-05-24T11:43:51.446Z,183.22
2023-05-24T11:44:51.469Z,188.27
2023-05-24T11:45:51.542Z,191.24
2023-05-24T11:46:51.467Z,190.86
2023-05-24T11:47:51.565Z,192.25
2023-05-24T11:48:51.549Z,191.83
2023-05-24T11:49:51.545Z,192.46
2023-05-24T11:50:52.018Z,195.48
2023-05-24T11:51:51.613Z,196.30
2023-05-24T11:52:51.601Z,198.20
2023-05-24T11:53:54.400Z,204.36
2023-05-24T11:54:51.623Z,203.71
2023-05-24T11:55:51.630Z,206.84
2023-05-24T11:56:51.706Z,208.46
2023-05-24T11:57:51.624Z,208.93
2023-05-24T11:58:51.609Z,211.75
2023-05-24T11:59:51.633Z,212.03
2023-05-24T12:00:51.576Z,214.05
2023-05-24T12:01:51.610Z,212.85
2023-05-24T12:02:52.440Z,214.73
2023-05-24T12:03:51.864Z,214.93
2023-05-24T12:04:51.604Z,215.05
2023-05-24T12:05:51.632Z,213.92
2023-05-24T12:06:51.604Z,215.26
2023-05-24T12:07:51.615Z,215.98
2023-05-24T12:08:51.617Z,218.08
2023-05-24T12:09:51.604Z,215.27
2023-05-24T12:10:51.775Z,216.47
2023-05-24T12:11:51.753Z,220.23
2023-05-24T12:12:51.857Z,218.59
2023-05-24T12:13:51.936Z,216.82
2023-05-24T12:14:52.002Z,218.29
2023-05-24T12:15:54.890Z,219.55
2023-05-24T12:16:51.993Z,218.74
2023-05-24T12:17:52.040Z,220.03
2023-05-24T12:19:03.722Z,219.65
2023-05-24T12:19:52.999Z,219.76
2023-05-24T12:20:52.049Z,218.72
2023-05-24T12:21:54.047Z,218.90
2023-05-24T12:22:51.971Z,218.95
2023-05-24T12:23:51.939Z,216.32
2023-05-24T12:24:51.949Z,214.83
2023-05-24T12:25:51.942Z,214.68
2023-05-24T12:26:51.938Z,213.04
2023-05-24T12:27:54.302Z,212.77
2023-05-24T12:28:51.917Z,216.68
2023-05-24T12:29:51.921Z,218.22
2023-05-24T12:30:51.926Z,214.45
2023-05-24T12:31:52.051Z,211.95
2023-05-24T12:32:51.923Z,211.36
2023-05-24T12:33:54.235Z,206.60
2023-05-24T12:34:52.066Z,206.87
2023-05-24T12:35:52.061Z,207.20
2023-05-24T12:36:52.083Z,206.79
2023-05-24T12:37:52.081Z,204.22
2023-05-24T12:38:52.139Z,204.08
2023-05-24T12:39:54.418Z,201.32
2023-05-24T12:41:03.900Z,200.89
2023-05-24T12:41:53.241Z,201.08
2023-05-24T12:42:52.280Z,201.27
2023-05-24T12:43:52.236Z,199.82
2023-05-24T12:44:52.223Z,200.45
2023-05-24T12:45:54.244Z,198.66
2023-05-24T12:46:52.244Z,198.78
2023-05-24T12:47:52.281Z,189.29
2023-05-24T12:48:52.177Z,181.79